createdAt,value
2018-05-07T01:52:27.622Z,11.49
2018-05-07T02:00:45.926Z,11.50
2018-05-07T02:03:13.492Z,11.51
2018-05-07T02:05:40.985Z,11.54
2018-05-07T02:08:08.530Z,11.55
2018-05-07T02:10:36.051Z,11.56
2018-05-07T02:19:14.750Z,11.67
2018-05-07T02:21:43.700Z,11.71
2018-05-07T02:24:11.266Z,11.72
2018-05-07T02:26:38.891Z,11.72
2018-05-07T02:29:29.566Z,11.72
2018-05-07T02:37:54.487Z,11.78
2018-05-07T02:40:22.024Z,11.80
2018-05-07T02:42:49.564Z,11.81
2018-05-07T02:45:17.054Z,11.81
2018-05-07T02:47:58.335Z,11.81
2018-05-07T02:58:46.906Z,11.81
2018-05-07T03:01:16.574Z,11.80
2018-05-07T03:03:44.207Z,11.78
2018-05-07T03:14:35.369Z,11.72
2018-05-07T03:17:02.923Z,11.71
2018-05-07T03:19:30.449Z,11.69
2018-05-07T03:33:10.173Z,11.54
2018-05-07T03:35:37.691Z,11.52
2018-05-07T03:38:05.401Z,11.49
2018-05-07T03:48:58.303Z,11.48
2018-05-07T03:51:25.879Z,11.49
2018-05-07T03:53:53.442Z,11.48
2018-05-07T03:56:26.106Z,11.49
2018-05-07T04:04:55.971Z,11.45
2018-05-07T04:07:23.529Z,11.46
2018-05-07T04:09:50.998Z,11.46
2018-05-07T04:12:18.553Z,11.44
2018-05-07T04:18:06.996Z,11.39
2018-05-07T04:23:47.025Z,11.27
2018-05-07T04:26:14.608Z,11.22
2018-05-07T04:28:42.136Z,11.15
2018-05-07T06:30:06.064Z,11.51
2018-05-07T06:35:49.702Z,11.66
2018-05-07T06:38:19.039Z,11.74
2018-05-07T06:40:46.588Z,11.82
2018-05-07T06:43:14.062Z,11.87
2018-05-07T06:45:41.680Z,11.91
2018-05-07T06:53:49.708Z,12.13
2018-05-07T06:56:22.697Z,12.18
2018-05-07T06:58:51.899Z,12.19
2018-05-07T07:01:19.432Z,12.20
2018-05-07T07:03:46.946Z,12.24
2018-05-07T07:06:14.536Z,12.29
2018-05-07T07:08:42.224Z,12.34
2018-05-07T07:11:09.759Z,12.36
2018-05-07T07:13:37.519Z,12.40
2018-05-07T07:16:05.159Z,12.44
2018-05-07T07:18:32.681Z,12.50
2018-05-07T07:21:00.239Z,12.57
2018-05-07T07:23:27.803Z,12.64
2018-05-07T07:31:44.424Z,12.76
2018-05-07T07:34:11.918Z,12.77
2018-05-07T07:36:39.565Z,12.77
2018-05-07T07:39:07.118Z,12.82
2018-05-07T07:41:34.598Z,12.89
2018-05-07T07:46:37.648Z,12.99
2018-05-07T07:49:06.471Z,13.05
2018-05-07T07:51:39.831Z,13.15
2018-05-07T07:54:07.371Z,13.28
2018-05-07T07:56:34.946Z,13.34
2018-05-07T07:59:02.462Z,13.40
2018-05-07T08:01:45.403Z,13.38
2018-05-07T08:04:13.172Z,13.40
2018-05-07T08:06:42.119Z,13.31
2018-05-07T08:09:09.629Z,13.27
2018-05-07T08:11:37.218Z,13.31
2018-05-07T08:14:04.799Z,13.30
2018-05-07T08:16:32.725Z,13.39
2018-05-07T08:19:00.476Z,13.47
2018-05-07T08:21:28.053Z,13.55
2018-05-07T08:23:55.660Z,13.54
2018-05-07T08:26:23.256Z,13.55
2018-05-07T08:28:50.738Z,13.58
2018-05-07T08:31:18.330Z,13.66
2018-05-07T08:33:47.900Z,13.72
2018-05-07T08:44:26.532Z,14.00
2018-05-07T08:46:56.126Z,14.03
2018-05-07T08:49:23.791Z,14.10
2018-05-07T09:02:19.530Z,14.16
2018-05-07T09:04:47.336Z,14.26
2018-05-07T09:07:14.967Z,14.32
2018-05-07T09:18:32.111Z,14.47
2018-05-07T09:20:59.987Z,14.46
2018-05-07T09:23:27.615Z,14.46
2018-05-07T09:34:47.073Z,14.37
2018-05-07T09:37:14.666Z,14.36
2018-05-07T09:39:42.300Z,14.16
2018-05-07T09:42:09.880Z,14.16
2018-05-07T09:54:16.445Z,14.10
2018-05-07T09:56:55.001Z,14.01
2018-05-07T09:59:22.789Z,13.89
2018-05-07T10:09:58.517Z,13.79
2018-05-07T10:12:26.130Z,13.81
2018-05-07T10:14:53.665Z,13.71
2018-05-07T10:17:21.969Z,13.72
2018-05-07T10:29:20.016Z,13.53
2018-05-07T10:31:47.658Z,13.59
2018-05-07T10:34:15.297Z,13.73
2018-05-07T10:45:12.404Z,13.83
2018-05-07T10:47:39.980Z,13.92
2018-05-07T10:50:07.708Z,13.70
2018-05-07T10:52:39.104Z,13.67
2018-05-07T10:55:18.717Z,13.78
2018-05-07T11:00:35.789Z,13.94
2018-05-07T11:03:03.452Z,13.96
2018-05-07T11:05:31.013Z,14.00
2018-05-07T11:07:58.680Z,14.01
2018-05-07T11:18:25.607Z,14.38
2018-05-07T11:20:53.177Z,14.47
2018-05-07T11:23:20.741Z,14.59
2018-05-07T11:25:48.399Z,14.74
2018-05-07T11:36:09.470Z,15.30
2018-05-07T11:38:37.045Z,15.37
2018-05-07T11:41:04.655Z,15.49
2018-05-07T11:43:32.355Z,15.62
2018-05-07T11:54:19.759Z,16.16
2018-05-07T11:56:47.338Z,16.20
2018-05-07T11:59:15.039Z,16.19
2018-05-07T12:01:50.060Z,16.33
2018-05-07T12:04:31.172Z,16.51
2018-05-07T12:07:24.390Z,16.60
2018-05-07T12:09:52.005Z,16.72
2018-05-07T12:12:19.540Z,16.82
2018-05-07T12:14:47.083Z,16.96
2018-05-07T12:17:14.594Z,17.12
2018-05-07T12:19:55.908Z,17.20
2018-05-07T12:22:23.590Z,17.25
2018-05-07T12:24:51.319Z,17.36
2018-05-07T12:27:19.118Z,17.51
2018-05-07T12:29:46.710Z,17.64
2018-05-07T12:32:14.253Z,17.67
2018-05-07T12:34:41.789Z,17.70
2018-05-07T12:37:10.503Z,17.76
2018-05-07T12:39:38.167Z,17.89
2018-05-07T12:42:05.764Z,17.96
2018-05-07T12:44:33.385Z,18.07
2018-05-07T12:47:00.927Z,18.23
2018-05-07T12:49:28.448Z,18.39
2018-05-07T12:51:56.047Z,18.55
2018-05-07T12:54:23.660Z,18.66
2018-05-07T12:56:51.509Z,18.78
2018-05-07T12:59:19.069Z,18.78
2018-05-07T13:01:46.917Z,18.69
2018-05-07T13:04:14.487Z,18.62
2018-05-07T13:06:42.047Z,18.52
2018-05-07T13:09:09.707Z,18.38
2018-05-07T13:11:38.019Z,18.27
2018-05-07T13:14:08.008Z,18.19
2018-05-07T13:16:35.693Z,18.26
2018-05-07T13:19:03.411Z,18.38
2018-05-07T13:21:30.968Z,18.47
2018-05-07T13:23:58.567Z,18.43
2018-05-07T13:26:26.255Z,18.53
2018-05-07T13:28:53.999Z,18.64
2018-05-07T13:31:21.898Z,18.78
2018-05-07T13:33:50.755Z,18.80
2018-05-07T13:36:19.445Z,18.83
2018-05-07T13:38:47.175Z,18.82
2018-05-07T13:41:14.732Z,18.78
2018-05-07T13:43:42.390Z,18.68
2018-05-07T13:46:10.905Z,18.65
2018-05-07T13:48:39.567Z,18.67
2018-05-07T13:51:08.330Z,18.67
2018-05-07T13:53:40.732Z,18.67
2018-05-07T13:56:08.369Z,18.67
2018-05-07T13:58:35.926Z,18.46
2018-05-07T14:01:03.494Z,18.32
2018-05-07T14:03:31.579Z,18.09
2018-05-07T14:12:06.296Z,18.02
2018-05-07T14:14:33.897Z,18.02
2018-05-07T14:17:01.430Z,18.16
2018-05-07T14:19:29.524Z,18.24
2018-05-07T14:21:58.664Z,18.26
2018-05-07T14:24:27.329Z,18.34
2018-05-07T14:27:05.170Z,18.31
2018-05-07T14:29:32.770Z,18.23
2018-05-07T14:32:00.363Z,18.31
2018-05-07T14:34:27.947Z,18.38
2018-05-07T14:36:55.574Z,18.44
2018-05-07T14:39:23.125Z,18.38
2018-05-07T14:41:51.217Z,18.28
2018-05-07T14:44:19.585Z,18.46
2018-05-07T14:46:48.187Z,18.62
2018-05-07T14:49:15.751Z,18.50
2018-05-07T14:51:43.457Z,18.51
2018-05-07T14:54:11.208Z,18.55
2018-05-07T14:59:12.752Z,18.52
2018-05-07T15:01:43.853Z,18.47
2018-05-07T15:04:11.435Z,18.48
2018-05-07T15:06:46.739Z,18.43
2018-05-07T15:09:14.303Z,18.32
2018-05-07T15:11:42.828Z,18.30
2018-05-07T15:14:22.780Z,18.28
2018-05-07T15:16:51.480Z,18.29
2018-05-07T15:19:22.641Z,18.32
2018-05-07T15:21:50.282Z,18.32
2018-05-07T15:24:17.819Z,18.26
2018-05-07T15:26:45.387Z,18.24
2018-05-07T15:29:14.222Z,18.21
2018-05-07T15:31:46.688Z,18.18
2018-05-07T15:34:15.301Z,18.26
2018-05-07T15:36:43.906Z,18.34
2018-05-07T15:39:11.439Z,18.40
2018-05-07T15:41:38.966Z,18.53
2018-05-07T15:44:06.573Z,18.71
2018-05-07T15:46:37.960Z,18.58
2018-05-07T15:49:06.122Z,18.40
2018-05-07T15:51:38.500Z,18.36
2018-05-07T15:54:07.210Z,18.27
2018-05-07T15:56:34.863Z,18.19
2018-05-07T15:59:02.368Z,18.10
2018-05-07T16:01:30.024Z,18.20
2018-05-07T16:06:31.840Z,18.27
2018-05-07T16:09:02.065Z,18.47
2018-05-07T16:11:29.623Z,18.44
2018-05-07T16:13:58.919Z,18.39
2018-05-07T16:16:26.478Z,18.18
2018-05-07T16:18:54.302Z,17.97
2018-05-07T16:21:23.056Z,17.87
2018-05-07T16:23:54.098Z,17.76
2018-05-07T16:26:23.828Z,17.66
2018-05-07T16:28:51.430Z,17.51
2018-05-07T16:31:19.147Z,17.40
2018-05-07T16:33:46.754Z,17.30
2018-05-07T16:36:14.336Z,17.14
2018-05-07T16:38:42.278Z,16.92
2018-05-07T16:41:13.558Z,16.86
2018-05-07T16:43:43.722Z,16.85
2018-05-07T16:46:11.258Z,16.98
2018-05-07T16:48:38.906Z,17.26
2018-05-07T16:51:06.460Z,17.68
2018-05-07T16:53:34.042Z,17.95
2018-05-07T16:58:38.403Z,18.53
2018-05-07T17:01:06.972Z,18.66
2018-05-07T17:03:34.580Z,18.83
2018-05-07T17:06:02.138Z,18.76
2018-05-07T17:08:30.645Z,18.61
2018-05-07T17:10:58.304Z,18.36
2018-05-07T17:13:29.601Z,18.22
2018-05-07T17:16:00.076Z,18.28
2018-05-07T17:18:30.897Z,18.29
2018-05-07T17:20:58.462Z,18.42
2018-05-07T17:23:26.022Z,18.22
2018-05-07T17:25:53.688Z,18.05
2018-05-07T17:28:22.320Z,18.10
2018-05-07T17:30:53.519Z,18.28
2018-05-07T17:33:22.249Z,18.37
2018-05-07T17:35:52.619Z,18.43
2018-05-07T17:38:20.901Z,18.48
2018-05-07T17:40:49.396Z,18.65
2018-05-07T17:43:16.947Z,18.62
2018-05-07T17:45:58.331Z,18.53
2018-05-07T17:48:39.099Z,18.42
2018-05-07T17:51:09.834Z,18.40
2018-05-07T17:53:42.727Z,18.22
2018-05-07T17:56:10.286Z,18.29
2018-05-07T17:58:37.890Z,18.28
2018-05-07T18:01:05.469Z,18.07
2018-05-07T18:03:34.157Z,18.17
2018-05-07T18:06:02.920Z,18.09
2018-05-07T18:08:31.623Z,18.02
2018-05-07T18:10:59.723Z,18.07
2018-05-07T18:13:27.276Z,17.87
2018-05-07T18:15:55.143Z,17.74
2018-05-07T18:18:22.842Z,17.66
2018-05-07T18:20:52.011Z,17.67
2018-05-07T18:23:23.569Z,17.58
2018-05-07T18:25:54.609Z,17.20
2018-05-07T18:28:23.471Z,16.92
2018-05-07T18:30:51.119Z,16.76
2018-05-07T18:33:18.687Z,16.48
2018-05-07T18:38:34.523Z,15.83
2018-05-07T18:41:03.110Z,15.68
2018-05-07T18:43:34.195Z,15.54
2018-05-07T18:46:03.160Z,15.38
2018-05-07T18:48:30.799Z,15.28
2018-05-07T18:50:58.466Z,15.09
2018-05-07T18:53:26.294Z,14.95
2018-05-07T18:55:57.588Z,14.83
2018-05-07T18:58:26.706Z,14.61
2018-05-07T19:00:55.492Z,14.44
2018-05-07T19:03:26.810Z,14.33
2018-05-07T19:05:54.453Z,14.20
2018-05-07T19:08:21.980Z,14.10
2018-05-07T19:10:49.634Z,13.99
2018-05-07T19:13:19.591Z,13.88
2018-05-07T19:15:47.983Z,13.68
2018-05-07T19:18:15.892Z,13.59
2018-05-07T19:20:43.518Z,13.55
2018-05-07T19:23:11.146Z,13.51
2018-05-07T19:25:38.824Z,13.47
2018-05-07T19:28:06.478Z,13.40
2018-05-07T19:30:35.535Z,13.27
2018-05-07T19:33:03.878Z,13.19
2018-05-07T19:35:32.600Z,13.18
2018-05-07T19:38:00.833Z,13.15
2018-05-07T19:40:28.394Z,13.10
2018-05-07T19:42:55.896Z,13.02
2018-05-07T19:45:23.517Z,13.01
2018-05-07T19:47:52.012Z,12.96
2018-05-07T19:50:19.756Z,12.91
2018-05-07T19:52:48.155Z,12.83
2018-05-07T19:55:16.797Z,12.80
2018-05-07T19:57:44.333Z,12.80
2018-05-07T20:00:11.899Z,12.80
2018-05-07T20:02:39.655Z,12.80
2018-05-07T20:05:07.655Z,12.81
2018-05-07T20:07:36.315Z,12.80
2018-05-07T20:10:06.088Z,12.73
2018-05-07T20:12:33.626Z,12.66
2018-05-07T20:15:01.150Z,12.63
2018-05-07T20:17:28.770Z,12.62
2018-05-07T20:19:56.416Z,12.61
2018-05-07T20:24:59.133Z,12.59
2018-05-07T20:27:27.853Z,12.59
2018-05-07T20:29:55.419Z,12.59
2018-05-07T20:32:23.058Z,12.60
2018-05-07T20:34:50.571Z,12.58
2018-05-07T20:37:18.336Z,12.57
2018-05-07T20:39:47.552Z,12.54
2018-05-07T20:42:16.055Z,12.53
2018-05-07T20:44:44.582Z,12.50
2018-05-07T20:47:12.889Z,12.51
2018-05-07T20:49:40.423Z,12.51
2018-05-07T20:52:07.983Z,12.51
2018-05-07T20:54:35.593Z,12.50
2018-05-07T20:57:03.459Z,12.49
2018-05-07T20:59:31.349Z,12.46
2018-05-07T21:01:59.600Z,12.37
2018-05-07T21:04:27.155Z,12.36
2018-05-07T21:06:54.660Z,12.40
2018-05-07T21:09:22.277Z,12.40
2018-05-07T21:11:50.031Z,12.41
2018-05-07T21:14:18.218Z,12.33
2018-05-07T21:16:46.824Z,12.35
2018-05-07T21:19:15.572Z,12.36
2018-05-07T21:21:43.128Z,12.37
2018-05-07T21:24:10.655Z,12.39
2018-05-07T21:26:38.176Z,12.38
2018-05-07T21:29:05.716Z,12.39
2018-05-07T21:31:35.198Z,12.39
2018-05-07T21:34:03.679Z,12.40
2018-05-07T21:36:33.903Z,12.42
2018-05-07T21:39:01.483Z,12.43
2018-05-07T21:41:29.032Z,12.41
2018-05-07T21:43:56.587Z,12.39
2018-05-07T21:46:24.248Z,12.40
2018-05-07T21:48:51.835Z,12.37
2018-05-07T21:51:19.415Z,12.32
2018-05-07T21:53:48.055Z,12.31
2018-05-07T21:56:15.590Z,12.33
2018-05-07T21:58:43.131Z,12.35
2018-05-07T22:01:10.633Z,12.37
2018-05-07T22:03:38.279Z,12.32
2018-05-07T22:06:06.987Z,12.31
2018-05-07T22:08:34.741Z,12.32
2018-05-07T22:11:02.648Z,12.34
2018-05-07T22:13:30.267Z,12.36
2018-05-07T22:15:57.914Z,12.34
2018-05-07T22:18:25.847Z,12.32
2018-05-07T22:20:53.767Z,12.28
2018-05-07T22:23:22.461Z,12.25
2018-05-07T22:25:50.985Z,12.19
2018-05-07T22:28:19.716Z,12.21
2018-05-07T22:30:47.243Z,12.22
2018-05-07T22:33:14.872Z,12.25
2018-05-07T22:35:42.432Z,12.26
2018-05-07T22:38:10.194Z,12.26
2018-05-07T22:40:38.828Z,12.26
2018-05-07T22:43:09.526Z,12.24
2018-05-07T22:45:38.110Z,12.24
2018-05-07T22:48:05.705Z,12.24
2018-05-07T22:50:33.259Z,12.26
2018-05-07T22:53:00.831Z,12.25
2018-05-07T22:55:28.583Z,12.25
2018-05-07T22:57:56.156Z,12.23
2018-05-07T23:00:24.020Z,12.23
2018-05-07T23:02:51.591Z,12.22
2018-05-07T23:05:19.148Z,12.22
2018-05-07T23:07:46.695Z,12.22
2018-05-07T23:10:14.351Z,12.22
2018-05-07T23:12:41.922Z,12.21
2018-05-07T23:15:10.624Z,12.22
2018-05-07T23:17:39.110Z,12.23
2018-05-07T23:20:07.291Z,12.23
2018-05-07T23:22:34.880Z,12.23
2018-05-07T23:25:02.588Z,12.20
2018-05-07T23:27:30.160Z,12.17
2018-05-07T23:29:57.939Z,12.15
2018-05-07T23:32:26.175Z,12.14
2018-05-07T23:34:54.916Z,12.14
2018-05-07T23:37:23.310Z,12.14
2018-05-07T23:39:50.928Z,12.13
2018-05-07T23:42:18.538Z,12.09
2018-05-07T23:44:46.122Z,12.06
2018-05-07T23:47:13.866Z,12.06
2018-05-07T23:49:44.052Z,12.02
2018-05-07T23:52:11.869Z,11.97
2018-05-07T23:54:39.539Z,11.91
2018-05-07T23:57:07.160Z,11.90
2018-05-07T23:59:34.822Z,11.90
